Airfield :
LOGIN :

Register | Disclaimer

   EN    FR    IT 

 










Legend :    VFR   Marginal VFR   IFR   Intensive IFR   Very Intensive IFR
Visi :
Ceiling :
>= 8 km
>= 3000ft
5 to 8 km
1000 to 3000 ft
1500m to 5 km
500 to 1000 ft
800 to 1500m
200 to 500 ft
< 800m
< 200 ft
Symbols :   Thunderstorms  Fog  Heavy snow  Heavy precipitations  Wind > 20 kt
SIGMETs :     Misc.  Thunderstorms  Icing  Turbulence  Mountain Waves  Volcanic Ashes






- Airport Elevation : 479 ft
- IATA code : DOL


LFRG - Deauville

CURRENT METAR :
  • 201830Z AUTO 01008KT 340V040 9999 -RA SCT016 BKN050 BKN072 11/10 Q1010 TEMPO 4000 RA BKN009

EXPIRED METARs :
  • 201800Z AUTO 01007KT 9999 -DZ BKN013/// BKN021/// BKN046/// ///TCU 11/10 Q1009 TEMPO 4000 RA BKN009
  • 201730Z AUTO 02007KT 9999 FEW010/// BKN014/// OVC080/// ///TCU 11/10 Q1009 TEMPO 4000 RA BKN009
  • 201700Z AUTO 02008KT 350V050 9999 BKN012/// OVC082/// ///TCU 11/10 Q1009 TEMPO 4000 RA BKN009
  • 201630Z AUTO 02010KT 9999 -RA FEW007 BKN012 BKN052 12/11 Q1008 TEMPO 4000 RA BKN009
  • 201600Z AUTO 01008KT 340V040 9999 -DZ FEW008/// BKN016/// BKN035/// ///TCU 12/11 Q1008 TEMPO 4000 RA BKN009

TAF TAF LFRG
Valid from the 20 at 15:00 until the 21 at 00:00 UTC


201400Z 2015/2024 02010KT 5000 RA BKN030
TEMPO 2015/2024 4000 RA BKN009
ATIS : +33 2 31 65 65 36



MET'MAP, your aeronautical weather chart ! - Copyright ORBIFLY December 2007 - Disclaimer

ORBIFLY MET'MAP TEAM :

Programming & Development : Alexandra Zaïnal
Concept & Development : Baudouin d'Aumeries
Co-Development & Prog : Marc-Olivier Méhu
Technical & hardware support : Manuel Goepfert

Contact : metmap@orbifly.com




SOURCES & CREDITS :

   NOAA